OKBK

Kuwait International Airport

Kuwait City, Kuwait
TAF OKBK 212245Z 2200/2306 35008KT 6000 NSC TEMPO 2200/2210 VRB03KT
Issued Valid From Valid To
Jan-21 @ 22:45 UTC
(an hour ago)
Jan-22 @ 00:00 UTC
(11 minutes ago)
Jan-23 @ 06:00 UTC
(-1 days ago)
Jan-22 @ 00:00 to Jan-23 @ 06:00
TAF OKBK 212245Z 2200/2306 35008KT 6000 NSC
Wind Visibility Clouds
350° at 8 knots 6,003 meters
  • No significant clouds
Temporary Jan-22 @ 00:00 to Jan-22 @ 10:00
TEMPO 2200/2210 VRB03KT
Wind
Variable at 3 knots
TAF OKBK 212245Z 2200/2306 35008KT 6000 NSC TEMPO 2200/2210 VRB03KT
Issued Jan-21 @ 22:45 UTC
(an hour ago)
Valid From Jan-22 @ 00:00 UTC
(11 minutes ago)
Valid To Jan-23 @ 06:00 UTC
(-1 days ago)
Jan-22 @ 00:00 - Jan-23 @ 06:00
Wind Visibility
350° at 8 knots 6,003 meters
Clouds
  • No significant clouds
Temporary Jan-22 @ 00:00 - Jan-22 @ 10:00
Wind
Variable at 3 knots